createdAt,value
2023-05-23T00:00:55.422Z,42.95
2023-05-23T00:01:55.491Z,42.85
2023-05-23T00:02:55.491Z,42.75
2023-05-23T00:03:55.471Z,42.59
2023-05-23T00:04:55.384Z,42.55
2023-05-23T00:05:55.370Z,42.41
2023-05-23T00:06:55.374Z,42.25
2023-05-23T00:07:55.363Z,42.21
2023-05-23T00:08:55.355Z,42.12
2023-05-23T00:09:55.346Z,42.06
2023-05-23T00:10:55.339Z,41.93
2023-05-23T00:11:55.451Z,41.88
2023-05-23T00:12:55.331Z,41.82
2023-05-23T00:13:55.316Z,41.74
2023-05-23T00:14:55.335Z,41.68
2023-05-23T00:15:55.301Z,41.58
2023-05-23T00:16:55.362Z,41.53
2023-05-23T00:17:55.318Z,41.47
2023-05-23T00:18:55.303Z,41.45
2023-05-23T00:19:55.271Z,41.38
2023-05-23T00:20:55.267Z,41.38
2023-05-23T00:21:55.256Z,41.32
2023-05-23T00:22:55.248Z,41.31
2023-05-23T00:23:55.237Z,41.23
2023-05-23T00:24:55.233Z,41.20
2023-05-23T00:25:55.252Z,41.17
2023-05-23T00:26:55.221Z,41.16
2023-05-23T00:27:55.362Z,41.11
2023-05-23T00:28:55.211Z,41.11
2023-05-23T00:29:55.197Z,41.09
2023-05-23T00:30:55.200Z,41.10
2023-05-23T00:31:55.187Z,41.06
2023-05-23T00:32:55.235Z,41.04
2023-05-23T00:33:55.181Z,40.99
2023-05-23T00:34:55.164Z,40.97
2023-05-23T00:35:55.165Z,40.95
2023-05-23T00:36:55.152Z,40.93
2023-05-23T00:37:55.145Z,40.94
2023-05-23T00:38:55.144Z,40.89
2023-05-23T00:39:55.128Z,40.90
2023-05-23T00:40:55.133Z,40.88
2023-05-23T00:41:55.115Z,40.86
2023-05-23T00:42:55.102Z,40.85
2023-05-23T00:43:55.214Z,40.84
2023-05-23T00:44:55.091Z,40.83
2023-05-23T00:45:55.090Z,40.89
2023-05-23T00:46:55.549Z,40.87
2023-05-23T00:47:55.095Z,40.85
2023-05-23T00:48:55.070Z,40.83
2023-05-23T00:49:55.064Z,40.86
2023-05-23T00:50:55.054Z,40.83
2023-05-23T00:51:55.058Z,40.83
2023-05-23T00:52:55.049Z,40.83
2023-05-23T00:53:55.029Z,40.83
2023-05-23T00:54:55.024Z,40.78
2023-05-23T00:55:55.032Z,40.77
2023-05-23T00:56:55.039Z,40.76
2023-05-23T00:57:55.005Z,40.73
2023-05-23T00:58:55.004Z,40.76
2023-05-23T00:59:55.114Z,40.73
2023-05-23T01:00:55.006Z,40.75
2023-05-23T01:01:55.039Z,40.72
2023-05-23T01:02:55.189Z,40.77
2023-05-23T01:03:55.041Z,40.69
2023-05-23T01:04:54.949Z,40.70
2023-05-23T01:05:54.960Z,40.72
2023-05-23T01:06:54.947Z,40.70
2023-05-23T01:07:54.927Z,40.71
2023-05-23T01:08:54.922Z,40.71
2023-05-23T01:09:54.916Z,40.68
2023-05-23T01:10:54.916Z,40.70
2023-05-23T01:11:54.915Z,40.64
2023-05-23T01:12:54.914Z,40.66
2023-05-23T01:13:54.912Z,40.63
2023-05-23T01:14:54.910Z,40.66
2023-05-23T01:15:55.062Z,40.68
2023-05-23T01:16:54.938Z,40.63
2023-05-23T01:17:54.953Z,40.63
2023-05-23T01:18:55.225Z,40.61
2023-05-23T01:19:54.916Z,40.63
2023-05-23T01:20:54.911Z,40.62
2023-05-23T01:21:54.912Z,40.62
2023-05-23T01:22:54.914Z,40.61
2023-05-23T01:23:54.913Z,40.62
2023-05-23T01:24:54.924Z,40.62
2023-05-23T01:25:54.918Z,40.60
2023-05-23T01:26:54.915Z,40.61
2023-05-23T01:27:54.919Z,40.60
2023-05-23T01:28:54.936Z,40.63
2023-05-23T01:29:54.916Z,40.63
2023-05-23T01:30:54.918Z,40.61
2023-05-23T01:31:55.102Z,40.61
2023-05-23T01:32:54.966Z,40.61
2023-05-23T01:33:54.906Z,40.62
2023-05-23T01:34:54.911Z,40.63
2023-05-23T01:35:54.899Z,40.62
2023-05-23T01:36:54.894Z,40.64
2023-05-23T01:37:54.919Z,40.64
2023-05-23T01:38:54.908Z,40.64
2023-05-23T01:39:54.897Z,40.59
2023-05-23T01:40:54.896Z,40.61
2023-05-23T01:41:54.931Z,40.62
2023-05-23T01:42:54.895Z,40.61
2023-05-23T01:43:54.909Z,40.61
2023-05-23T01:44:54.903Z,40.62
2023-05-23T01:45:54.964Z,40.62
2023-05-23T01:46:54.905Z,40.61
2023-05-23T01:47:55.074Z,40.62
2023-05-23T01:48:54.926Z,40.62
2023-05-23T01:49:54.919Z,40.61
2023-05-23T01:50:54.933Z,40.60
2023-05-23T01:51:54.928Z,40.58
2023-05-23T01:52:54.945Z,40.60
2023-05-23T01:53:54.937Z,40.61
2023-05-23T01:54:54.929Z,40.60
2023-05-23T01:55:54.932Z,40.60
2023-05-23T01:56:54.939Z,40.61
2023-05-23T01:57:54.926Z,40.61
2023-05-23T01:58:54.935Z,40.59
2023-05-23T01:59:54.956Z,40.59
2023-05-23T02:00:54.940Z,40.61
2023-05-23T02:01:54.940Z,40.61
2023-05-23T02:02:54.990Z,40.58
2023-05-23T02:03:55.085Z,40.57
2023-05-23T02:04:55.020Z,40.60
2023-05-23T02:05:54.963Z,40.58
2023-05-23T02:06:54.954Z,40.60
2023-05-23T02:07:54.965Z,40.60
2023-05-23T02:08:54.971Z,40.59
2023-05-23T02:09:54.977Z,40.60
2023-05-23T02:10:54.976Z,40.58
2023-05-23T02:11:54.998Z,40.60
2023-05-23T02:12:54.995Z,40.58
2023-05-23T02:13:54.987Z,40.59
2023-05-23T02:14:55.002Z,40.60
2023-05-23T02:15:54.999Z,40.59
2023-05-23T02:16:55.083Z,40.57
2023-05-23T02:17:55.054Z,40.60
2023-05-23T02:18:55.087Z,40.57
2023-05-23T02:19:55.157Z,40.57
2023-05-23T02:20:55.033Z,40.57
2023-05-23T02:21:55.034Z,40.54
2023-05-23T02:22:55.029Z,40.56
2023-05-23T02:23:55.045Z,40.57
2023-05-23T02:24:55.065Z,40.58
2023-05-23T02:25:55.049Z,40.57
2023-05-23T02:26:55.049Z,40.58
2023-05-23T02:27:55.061Z,40.57
2023-05-23T02:28:55.083Z,40.55
2023-05-23T02:29:55.077Z,40.57
2023-05-23T02:30:55.080Z,40.58
2023-05-23T02:31:55.080Z,40.56
2023-05-23T02:32:55.119Z,40.55
2023-05-23T02:33:55.097Z,40.55
2023-05-23T02:34:57.282Z,40.54
2023-05-23T02:35:55.232Z,40.52
2023-05-23T02:36:55.098Z,40.51
2023-05-23T02:37:55.090Z,40.51
2023-05-23T02:38:55.079Z,40.50
2023-05-23T02:39:55.104Z,40.51
2023-05-23T02:40:55.065Z,40.52
2023-05-23T02:41:55.059Z,40.52
2023-05-23T02:42:55.051Z,40.51
2023-05-23T02:43:55.043Z,40.52
2023-05-23T02:44:55.037Z,40.52
2023-05-23T02:45:55.081Z,40.50
2023-05-23T02:46:55.024Z,40.48
2023-05-23T02:47:55.031Z,40.47
2023-05-23T02:48:55.011Z,40.46
2023-05-23T02:49:55.000Z,40.48
2023-05-23T02:50:55.001Z,40.45
2023-05-23T02:51:55.109Z,40.45
2023-05-23T02:52:54.979Z,40.44
2023-05-23T02:53:54.981Z,40.45
2023-05-23T02:54:54.974Z,40.45
2023-05-23T02:55:54.980Z,40.45
2023-05-23T02:56:54.961Z,40.41
2023-05-23T02:57:54.969Z,40.45
2023-05-23T02:58:54.972Z,40.43
2023-05-23T02:59:54.952Z,40.41
2023-05-23T03:00:54.934Z,40.41
2023-05-23T03:01:54.979Z,40.44
2023-05-23T03:02:55.005Z,40.44
2023-05-23T03:03:54.975Z,40.45
2023-05-23T03:04:54.910Z,40.43
2023-05-23T03:05:54.907Z,40.44
2023-05-23T03:06:54.888Z,40.43
2023-05-23T03:07:55.018Z,40.43
2023-05-23T03:08:54.957Z,40.43
2023-05-23T03:09:54.871Z,40.42
2023-05-23T03:10:54.871Z,40.45
2023-05-23T03:11:54.856Z,40.43
2023-05-23T03:12:54.855Z,40.42
2023-05-23T03:13:54.906Z,40.47
2023-05-23T03:14:54.832Z,40.44
2023-05-23T03:15:54.846Z,40.42
2023-05-23T03:16:54.818Z,40.43
2023-05-23T03:17:54.848Z,40.43
2023-05-23T03:18:54.852Z,40.44
2023-05-23T03:19:54.808Z,40.41
2023-05-23T03:20:54.792Z,40.42
2023-05-23T03:21:54.784Z,40.44
2023-05-23T03:22:54.779Z,40.41
2023-05-23T03:23:54.901Z,40.42
2023-05-23T03:24:54.762Z,40.43
2023-05-23T03:25:54.754Z,40.44
2023-05-23T03:26:54.750Z,40.45
2023-05-23T03:27:54.742Z,40.44
2023-05-23T03:28:54.726Z,40.44
2023-05-23T03:29:54.715Z,40.43
2023-05-23T03:30:54.710Z,40.43
2023-05-23T03:31:54.818Z,40.42
2023-05-23T03:32:54.756Z,40.42
2023-05-23T03:33:54.691Z,40.42
2023-05-23T03:34:54.696Z,40.44
2023-05-23T03:35:54.678Z,40.41
2023-05-23T03:36:54.676Z,40.42
2023-05-23T03:37:54.682Z,40.43
2023-05-23T03:38:54.648Z,40.42
2023-05-23T03:39:54.775Z,40.44
2023-05-23T03:40:54.641Z,40.42
2023-05-23T03:41:54.634Z,40.44
2023-05-23T03:42:54.615Z,40.46
2023-05-23T03:43:54.608Z,40.43
2023-05-23T03:44:54.604Z,40.44
2023-05-23T03:45:54.665Z,40.44
2023-05-23T03:46:54.606Z,40.45
2023-05-23T03:47:54.621Z,40.43
2023-05-23T03:48:54.576Z,40.44
2023-05-23T03:49:54.587Z,40.44
2023-05-23T03:50:54.596Z,40.44
2023-05-23T03:51:54.560Z,40.45
2023-05-23T03:52:54.602Z,40.47
2023-05-23T03:53:54.537Z,40.44
2023-05-23T03:54:54.554Z,40.43
2023-05-23T03:55:54.655Z,40.44
2023-05-23T03:56:54.523Z,40.44
2023-05-23T03:57:54.626Z,40.43
2023-05-23T03:58:54.529Z,40.42
2023-05-23T03:59:54.518Z,40.44
2023-05-23T04:00:54.503Z,40.42
2023-05-23T04:01:54.561Z,40.43
2023-05-23T04:02:54.687Z,40.46
2023-05-23T04:03:54.604Z,40.47
2023-05-23T04:04:54.535Z,40.45
2023-05-23T04:05:54.549Z,40.44
2023-05-23T04:06:54.554Z,40.45
2023-05-23T04:07:54.565Z,40.44
2023-05-23T04:08:54.572Z,40.44
2023-05-23T04:09:54.590Z,40.45
2023-05-23T04:10:54.606Z,40.45
2023-05-23T04:11:54.749Z,40.45
2023-05-23T04:12:54.635Z,40.44
2023-05-23T04:13:54.640Z,40.46
2023-05-23T04:14:54.639Z,40.46
2023-05-23T04:15:54.696Z,40.46
2023-05-23T04:16:54.643Z,40.45
2023-05-23T04:17:54.674Z,40.48
2023-05-23T04:18:54.737Z,40.44
2023-05-23T04:19:54.659Z,40.48
2023-05-23T04:20:54.678Z,40.47
2023-05-23T04:21:54.679Z,40.46
2023-05-23T04:22:54.697Z,40.46
2023-05-23T04:23:55.271Z,40.47
2023-05-23T04:24:54.712Z,40.49
2023-05-23T04:25:54.738Z,40.48
2023-05-23T04:26:54.738Z,40.48
2023-05-23T04:27:54.892Z,40.49
2023-05-23T04:28:54.780Z,40.47
2023-05-23T04:29:54.781Z,40.50
2023-05-23T04:30:54.855Z,40.48
2023-05-23T04:31:54.808Z,40.49
2023-05-23T04:32:54.918Z,40.48
2023-05-23T04:33:54.852Z,40.48
2023-05-23T04:34:54.844Z,40.48
2023-05-23T04:35:54.846Z,40.50
2023-05-23T04:36:54.871Z,40.51
2023-05-23T04:37:54.876Z,40.50
2023-05-23T04:38:54.930Z,40.49
2023-05-23T04:39:54.907Z,40.52
2023-05-23T04:40:54.927Z,40.52
2023-05-23T04:41:54.922Z,40.51
2023-05-23T04:42:54.939Z,40.53
2023-05-23T04:43:55.311Z,40.51
2023-05-23T04:44:54.965Z,40.51
2023-05-23T04:45:54.968Z,40.51
2023-05-23T04:46:55.028Z,40.52
2023-05-23T04:47:55.088Z,40.50
2023-05-23T04:48:55.051Z,40.50
2023-05-23T04:49:55.021Z,40.50
2023-05-23T04:50:55.026Z,40.49
2023-05-23T04:51:55.055Z,40.51
2023-05-23T04:52:55.064Z,40.51
2023-05-23T04:53:55.089Z,40.53
2023-05-23T04:54:55.104Z,40.53
2023-05-23T04:55:55.112Z,40.52
2023-05-23T04:56:55.123Z,40.55
2023-05-23T04:57:55.123Z,40.55
2023-05-23T04:58:55.132Z,40.55
2023-05-23T04:59:55.257Z,40.54
2023-05-23T05:00:55.176Z,40.56
2023-05-23T05:01:55.196Z,40.59
2023-05-23T05:02:55.254Z,40.55
2023-05-23T05:03:55.225Z,40.56
2023-05-23T05:04:55.201Z,40.55
2023-05-23T05:05:55.230Z,40.58
2023-05-23T05:06:55.225Z,40.59
2023-05-23T05:07:55.269Z,40.60
2023-05-23T05:08:55.254Z,40.58
2023-05-23T05:09:55.284Z,40.62
2023-05-23T05:10:55.273Z,40.61
2023-05-23T05:11:55.287Z,40.60
2023-05-23T05:12:55.314Z,40.60
2023-05-23T05:13:55.326Z,40.62
2023-05-23T05:14:55.764Z,40.62
2023-05-23T05:15:55.462Z,40.64
2023-05-23T05:16:55.372Z,40.62
2023-05-23T05:17:55.403Z,40.62
2023-05-23T05:18:55.432Z,40.64
2023-05-23T05:19:55.761Z,40.64
2023-05-23T05:20:55.416Z,40.64
2023-05-23T05:21:55.420Z,40.70
2023-05-23T05:22:55.437Z,40.69
2023-05-23T05:23:55.456Z,40.73
2023-05-23T05:24:55.466Z,40.67
2023-05-23T05:25:55.491Z,40.65
2023-05-23T05:26:55.500Z,40.64
2023-05-23T05:27:55.500Z,40.61
2023-05-23T05:28:55.525Z,40.61
2023-05-23T05:29:55.506Z,40.59
2023-05-23T05:30:55.658Z,40.59
2023-05-23T05:31:55.664Z,40.59
2023-05-23T05:32:55.584Z,40.63
2023-05-23T05:33:55.581Z,40.65
2023-05-23T05:34:55.563Z,40.63
2023-05-23T05:35:56.267Z,40.65
2023-05-23T05:36:55.588Z,40.67
2023-05-23T05:37:55.603Z,40.67
2023-05-23T05:38:55.602Z,40.70
2023-05-23T05:39:55.638Z,40.70
2023-05-23T05:40:55.622Z,40.74
2023-05-23T05:41:55.624Z,40.74
2023-05-23T05:42:55.626Z,40.73
2023-05-23T05:43:55.644Z,40.69
2023-05-23T05:44:55.780Z,40.68
2023-05-23T05:45:55.826Z,40.64
2023-05-23T05:46:55.700Z,40.66
2023-05-23T05:47:55.807Z,40.64
2023-05-23T05:48:55.828Z,40.64
2023-05-23T05:49:55.649Z,40.61
2023-05-23T05:50:55.683Z,40.64
2023-05-23T05:51:55.659Z,40.64
2023-05-23T05:52:55.662Z,40.63
2023-05-23T05:53:55.832Z,40.65
2023-05-23T05:54:55.662Z,40.81
2023-05-23T05:55:55.664Z,41.17
2023-05-23T05:57:11.277Z,41.04
2023-05-23T05:57:58.885Z,41.34
2023-05-23T05:58:56.073Z,41.42
2023-05-23T05:59:55.651Z,41.60
2023-05-23T06:00:55.651Z,41.85
2023-05-23T06:01:55.798Z,42.08
2023-05-23T06:02:55.771Z,42.01
2023-05-23T06:03:56.834Z,42.06
2023-05-23T06:04:55.790Z,42.26
2023-05-23T06:07:56.283Z,42.65
2023-05-23T06:09:56.188Z,42.78
2023-05-23T06:10:56.339Z,42.91
2023-05-23T06:11:55.940Z,42.93
2023-05-23T06:12:56.135Z,42.96
2023-05-23T06:13:55.875Z,42.87
2023-05-23T06:14:56.377Z,43.19
2023-05-23T06:15:56.028Z,43.49
2023-05-23T06:16:55.867Z,43.97
2023-05-23T06:17:57.102Z,44.15
2023-05-23T06:18:56.287Z,44.33
2023-05-23T06:19:56.355Z,44.45
2023-05-23T06:20:56.442Z,44.65
2023-05-23T06:21:55.950Z,44.71
2023-05-23T06:22:56.355Z,44.98
2023-05-23T06:23:56.208Z,45.13
2023-05-23T06:24:56.323Z,45.43
2023-05-23T06:25:55.975Z,45.32
2023-05-23T06:26:56.204Z,45.43
2023-05-23T06:27:56.190Z,45.48
2023-05-23T06:28:56.274Z,45.55
2023-05-23T06:29:56.392Z,45.79
2023-05-23T06:30:56.188Z,45.98
2023-05-23T06:31:56.050Z,46.08
2023-05-23T06:32:56.287Z,45.87
2023-05-23T06:33:56.223Z,46.01
2023-05-23T06:34:56.153Z,46.05
2023-05-23T06:35:56.439Z,46.26
2023-05-23T06:36:57.035Z,46.18
2023-05-23T06:37:56.298Z,46.34
2023-05-23T06:38:55.937Z,46.37
2023-05-23T06:39:56.205Z,46.44
2023-05-23T06:40:56.220Z,46.45
2023-05-23T06:41:57.324Z,46.53
2023-05-23T06:43:05.355Z,46.62
2023-05-23T06:43:56.245Z,46.71
2023-05-23T06:46:12.093Z,47.01
2023-05-23T06:46:56.181Z,47.00
2023-05-23T06:47:56.414Z,47.00
2023-05-23T06:49:15.048Z,46.96
2023-05-23T06:49:57.713Z,47.05
2023-05-23T06:50:56.378Z,47.10
2023-05-23T06:51:56.702Z,47.11
2023-05-23T06:52:56.883Z,47.17
2023-05-23T06:53:56.182Z,47.28
2023-05-23T06:54:56.288Z,47.33
2023-05-23T06:55:56.176Z,47.43
2023-05-23T06:56:56.306Z,47.50
2023-05-23T06:57:56.014Z,47.62
2023-05-23T06:58:56.289Z,47.65
2023-05-23T06:59:56.323Z,47.68
2023-05-23T07:00:56.170Z,47.77
2023-05-23T07:01:56.395Z,47.81
2023-05-23T07:02:57.152Z,47.86
2023-05-23T07:03:56.281Z,47.92
2023-05-23T07:04:56.886Z,47.96
2023-05-23T07:05:56.387Z,47.97
2023-05-23T07:06:56.367Z,48.02
2023-05-23T07:07:56.737Z,48.05
2023-05-23T07:08:56.339Z,48.07
2023-05-23T07:09:56.348Z,48.07
2023-05-23T07:10:56.761Z,48.04
2023-05-23T07:11:56.524Z,48.01
2023-05-23T07:12:56.664Z,48.02
2023-05-23T07:13:56.391Z,48.01
2023-05-23T07:14:56.299Z,47.98
2023-05-23T07:15:56.314Z,47.98
2023-05-23T07:16:56.399Z,47.94
2023-05-23T07:17:56.402Z,47.90
2023-05-23T07:18:56.453Z,47.90
2023-05-23T07:19:56.461Z,47.90
2023-05-23T07:20:56.471Z,47.84
2023-05-23T07:21:56.830Z,47.82
2023-05-23T07:22:56.541Z,47.77
2023-05-23T07:23:56.698Z,47.80
2023-05-23T07:24:56.671Z,47.75
2023-05-23T07:26:02.376Z,47.79
2023-05-23T07:26:56.650Z,47.76
2023-05-23T07:27:56.631Z,47.75
2023-05-23T07:28:56.632Z,47.75
2023-05-23T07:29:56.832Z,47.76
2023-05-23T07:30:56.621Z,47.72
2023-05-23T07:31:57.619Z,47.74
2023-05-23T07:32:56.818Z,47.75
2023-05-23T07:33:56.823Z,47.76
2023-05-23T07:34:56.843Z,47.76
2023-05-23T07:37:12.221Z,47.78
2023-05-23T07:37:56.812Z,47.79
2023-05-23T07:38:59.823Z,47.74
2023-05-23T07:39:56.813Z,47.75
2023-05-23T07:41:10.677Z,47.78
2023-05-23T07:42:56.551Z,47.72
2023-05-23T07:43:57.611Z,47.71
2023-05-23T07:44:56.812Z,47.78
2023-05-23T07:45:56.524Z,47.70
2023-05-23T07:46:56.673Z,47.65
2023-05-23T07:47:56.849Z,47.64
2023-05-23T07:48:56.493Z,47.73
2023-05-23T07:49:56.818Z,47.59
2023-05-23T07:50:56.473Z,47.59
2023-05-23T07:51:56.466Z,47.90
2023-05-23T07:53:12.090Z,47.80
2023-05-23T07:53:59.645Z,47.88
2023-05-23T07:54:56.844Z,47.96
2023-05-23T07:55:56.454Z,48.00
2023-05-23T07:56:56.505Z,48.01
2023-05-23T07:57:56.458Z,48.03
2023-05-23T07:58:56.415Z,48.01
2023-05-23T07:59:56.814Z,47.90
2023-05-23T08:00:56.432Z,47.95
2023-05-23T08:03:12.100Z,48.00
2023-05-23T08:03:59.615Z,48.11
2023-05-23T08:04:57.390Z,48.01
2023-05-23T08:05:56.827Z,48.02
2023-05-23T08:07:55.571Z,48.00
2023-05-23T08:08:56.351Z,48.03
2023-05-23T08:09:56.821Z,48.22
2023-05-23T08:10:56.372Z,48.29
2023-05-23T08:11:56.322Z,48.15
2023-05-23T08:12:56.534Z,48.15
2023-05-23T08:13:56.309Z,48.28
2023-05-23T08:14:56.337Z,48.29
2023-05-23T08:15:59.564Z,48.38
2023-05-23T08:16:56.368Z,48.39
2023-05-23T08:17:56.363Z,48.46
2023-05-23T08:18:56.326Z,48.39
2023-05-23T08:19:56.343Z,48.37
2023-05-23T08:21:03.684Z,48.43
2023-05-23T08:21:56.264Z,48.45
2023-05-23T08:22:56.297Z,48.37
2023-05-23T08:23:56.240Z,48.47
2023-05-23T08:24:56.234Z,48.46
2023-05-23T08:25:57.233Z,48.47
2023-05-23T08:26:56.240Z,48.37
2023-05-23T08:27:56.215Z,48.54
2023-05-23T08:28:56.206Z,48.54
2023-05-23T08:29:56.329Z,48.51
2023-05-23T08:30:56.195Z,48.59
2023-05-23T08:31:56.464Z,48.61
2023-05-23T08:32:56.210Z,48.42
2023-05-23T08:33:57.171Z,48.71
2023-05-23T08:34:56.374Z,48.68
2023-05-23T08:36:03.611Z,48.69
2023-05-23T08:36:56.259Z,48.83
2023-05-23T08:37:56.206Z,48.86
2023-05-23T08:38:56.200Z,48.82
2023-05-23T08:39:56.387Z,48.79
2023-05-23T08:40:56.180Z,48.86
2023-05-23T08:41:56.170Z,48.84
2023-05-23T08:42:56.244Z,48.92
2023-05-23T08:43:56.167Z,48.88
2023-05-23T08:44:56.340Z,49.08
2023-05-23T08:45:56.166Z,49.05
2023-05-23T08:46:56.142Z,49.10
2023-05-23T08:47:56.152Z,49.10
2023-05-23T08:48:56.131Z,49.18
2023-05-23T08:49:59.543Z,49.13
2023-05-23T08:50:56.113Z,49.20
2023-05-23T08:51:56.116Z,49.29
2023-05-23T08:52:56.145Z,49.27
2023-05-23T08:53:59.332Z,49.29
2023-05-23T08:54:56.093Z,49.28
2023-05-23T08:55:56.096Z,49.24
2023-05-23T08:56:57.104Z,49.38
2023-05-23T08:57:56.122Z,49.54
2023-05-23T08:58:56.077Z,49.72
2023-05-23T08:59:56.343Z,49.61
2023-05-23T09:00:56.048Z,49.62
2023-05-23T09:01:56.091Z,49.64
2023-05-23T09:02:56.050Z,49.63
2023-05-23T09:03:56.024Z,49.71
2023-05-23T09:04:56.028Z,49.72
2023-05-23T09:05:56.073Z,49.71
2023-05-23T09:06:56.014Z,49.66
2023-05-23T09:07:56.342Z,49.76
2023-05-23T09:08:56.077Z,49.96
2023-05-23T09:09:56.359Z,49.98
2023-05-23T09:10:56.072Z,49.99
2023-05-23T09:11:56.098Z,49.97
2023-05-23T09:12:56.126Z,50.06
2023-05-23T09:13:56.166Z,50.12
2023-05-23T09:14:56.208Z,50.12
2023-05-23T09:15:56.241Z,50.09
2023-05-23T09:16:56.239Z,50.26
2023-05-23T09:17:56.293Z,50.13
2023-05-23T09:18:56.317Z,50.00
2023-05-23T09:19:56.378Z,50.07
2023-05-23T09:20:56.338Z,50.04
2023-05-23T09:21:56.330Z,50.12
2023-05-23T09:22:56.350Z,50.23
2023-05-23T09:23:56.370Z,50.18
2023-05-23T09:24:56.851Z,50.31
2023-05-23T09:25:56.404Z,50.49
2023-05-23T09:26:56.417Z,50.42
2023-05-23T09:27:56.446Z,50.65
2023-05-23T09:28:56.457Z,50.57
2023-05-23T09:29:56.855Z,50.55
2023-05-23T09:30:56.512Z,50.46
2023-05-23T09:31:56.620Z,50.38
2023-05-23T09:32:57.207Z,50.28
2023-05-23T09:33:56.564Z,50.20
2023-05-23T09:34:56.855Z,50.13
2023-05-23T09:35:56.594Z,50.14
2023-05-23T09:36:56.618Z,50.09
2023-05-23T09:37:56.868Z,50.04
2023-05-23T09:38:56.689Z,49.99
2023-05-23T09:39:56.945Z,50.02
2023-05-23T09:40:56.747Z,49.95
2023-05-23T09:41:56.835Z,49.89
2023-05-23T09:42:56.826Z,49.91
2023-05-23T09:43:56.860Z,49.90
2023-05-23T09:44:57.359Z,49.91
2023-05-23T09:45:57.361Z,49.88
2023-05-23T09:46:57.032Z,49.86
2023-05-23T09:47:57.018Z,49.77
2023-05-23T09:48:57.064Z,49.81
2023-05-23T09:49:57.105Z,49.82
2023-05-23T09:50:57.164Z,49.84
2023-05-23T09:51:57.172Z,49.84
2023-05-23T09:52:57.218Z,49.85
2023-05-23T09:54:00.466Z,49.82
2023-05-23T09:54:57.274Z,49.89
2023-05-23T09:55:57.260Z,49.85
2023-05-23T09:56:58.361Z,49.93
2023-05-23T09:57:57.234Z,49.89
2023-05-23T09:58:57.270Z,49.96
2023-05-23T09:59:57.235Z,50.12
2023-05-23T10:01:04.863Z,50.09
2023-05-23T10:01:57.226Z,50.16
2023-05-23T10:02:57.314Z,50.20
2023-05-23T10:03:59.664Z,50.05
2023-05-23T10:04:57.204Z,50.12
2023-05-23T10:05:57.904Z,50.28
2023-05-23T10:06:57.215Z,50.24
2023-05-23T10:07:57.182Z,50.23
2023-05-23T10:08:57.157Z,50.20
2023-05-23T10:09:59.044Z,50.21
2023-05-23T10:10:57.481Z,50.14
2023-05-23T10:11:57.131Z,50.24
2023-05-23T10:12:57.390Z,50.16
2023-05-23T10:13:57.133Z,50.15
2023-05-23T10:14:57.128Z,50.23
2023-05-23T10:15:58.220Z,50.22
2023-05-23T10:16:57.424Z,50.16
2023-05-23T10:17:57.466Z,50.23
2023-05-23T10:18:57.122Z,50.24
2023-05-23T10:19:57.077Z,50.28
2023-05-23T10:20:57.073Z,50.42
2023-05-23T10:21:57.380Z,50.43
2023-05-23T10:22:57.063Z,50.41
2023-05-23T10:23:57.060Z,50.48
2023-05-23T10:24:57.373Z,50.51
2023-05-23T10:25:57.043Z,50.55
2023-05-23T10:26:57.377Z,50.51
2023-05-23T10:27:57.079Z,50.55
2023-05-23T10:28:57.379Z,50.60
2023-05-23T10:29:57.131Z,50.69
2023-05-23T10:30:57.193Z,50.60
2023-05-23T10:31:57.181Z,50.63
2023-05-23T10:32:57.257Z,50.74
2023-05-23T10:33:57.382Z,50.63
2023-05-23T10:34:57.411Z,50.75
2023-05-23T10:35:57.322Z,50.68
2023-05-23T10:36:57.374Z,50.64
2023-05-23T10:37:57.309Z,50.56
2023-05-23T10:38:57.335Z,50.69
2023-05-23T10:39:57.495Z,50.62
2023-05-23T10:40:57.361Z,50.58
2023-05-23T10:41:57.371Z,50.53
2023-05-23T10:42:57.371Z,50.50
2023-05-23T10:43:57.383Z,50.51
2023-05-23T10:44:58.630Z,50.59
2023-05-23T10:45:57.441Z,50.62
2023-05-23T10:46:58.496Z,50.63
2023-05-23T10:47:57.389Z,50.63
2023-05-23T10:48:57.378Z,50.68
2023-05-23T10:49:57.381Z,50.63
2023-05-23T10:50:57.393Z,50.70
2023-05-23T10:51:57.369Z,50.61
2023-05-23T10:52:57.376Z,50.64
2023-05-23T10:53:57.325Z,50.62
2023-05-23T10:54:57.338Z,50.76
2023-05-23T10:55:57.404Z,50.76
2023-05-23T10:56:57.300Z,50.78
2023-05-23T10:57:57.299Z,50.88
2023-05-23T10:58:57.287Z,50.81
2023-05-23T10:59:57.288Z,50.93
2023-05-23T11:00:57.383Z,50.99
2023-05-23T11:01:57.310Z,51.23
2023-05-23T11:02:57.365Z,51.27
2023-05-23T11:03:57.469Z,51.35
2023-05-23T11:04:57.249Z,51.37
2023-05-23T11:05:57.382Z,51.19
2023-05-23T11:06:57.250Z,51.18
2023-05-23T11:07:57.383Z,51.07
2023-05-23T11:08:57.212Z,50.98
2023-05-23T11:09:57.385Z,50.84
2023-05-23T11:10:57.225Z,50.82
2023-05-23T11:11:57.206Z,50.75
2023-05-23T11:12:57.421Z,50.74
2023-05-23T11:13:57.258Z,50.71
2023-05-23T11:14:57.404Z,50.67
2023-05-23T11:15:57.212Z,50.62
2023-05-23T11:16:57.233Z,50.50
2023-05-23T11:17:58.420Z,50.72
2023-05-23T11:18:57.418Z,50.84
2023-05-23T11:20:04.810Z,50.96
2023-05-23T11:20:57.200Z,51.01
2023-05-23T11:21:57.176Z,50.91
2023-05-23T11:22:57.200Z,50.88
2023-05-23T11:23:57.159Z,50.91
2023-05-23T11:24:57.421Z,50.87
2023-05-23T11:25:57.158Z,51.08
2023-05-23T11:26:57.135Z,51.11
2023-05-23T11:27:57.403Z,51.16
2023-05-23T11:28:57.139Z,51.16
2023-05-23T11:29:58.003Z,51.17
2023-05-23T11:30:57.121Z,51.16
2023-05-23T11:31:57.163Z,51.16
2023-05-23T11:32:57.477Z,51.12
2023-05-23T11:33:57.089Z,51.03
2023-05-23T11:34:57.108Z,50.98
2023-05-23T11:35:57.106Z,50.91
2023-05-23T11:36:57.160Z,50.87
2023-05-23T11:38:13.027Z,50.77
2023-05-23T11:38:57.065Z,50.73
2023-05-23T11:39:57.433Z,50.57
2023-05-23T11:40:57.048Z,50.55
2023-05-23T11:41:57.037Z,50.50
2023-05-23T11:42:57.050Z,50.61
2023-05-23T11:43:57.027Z,50.69
2023-05-23T11:44:57.441Z,50.82
2023-05-23T11:45:57.058Z,50.91
2023-05-23T11:46:57.006Z,50.99
2023-05-23T11:47:57.070Z,51.10
2023-05-23T11:48:57.007Z,51.21
2023-05-23T11:49:58.426Z,51.48
2023-05-23T11:50:56.985Z,51.41
2023-05-23T11:51:56.977Z,51.32
2023-05-23T11:52:57.006Z,51.21
2023-05-23T11:53:56.996Z,51.12
2023-05-23T11:55:02.068Z,51.11
2023-05-23T11:55:56.988Z,51.07
2023-05-23T11:56:56.942Z,51.05
2023-05-23T11:57:56.932Z,50.97
2023-05-23T11:58:56.920Z,50.90
2023-05-23T11:59:56.940Z,50.88
2023-05-23T12:00:56.913Z,50.87
2023-05-23T12:01:56.919Z,50.81
2023-05-23T12:02:57.288Z,50.84
2023-05-23T12:03:56.965Z,50.75
2023-05-23T12:04:57.018Z,50.75
2023-05-23T12:05:56.871Z,50.73
2023-05-23T12:06:56.914Z,50.65
2023-05-23T12:07:56.916Z,50.61
2023-05-23T12:08:56.889Z,50.65
2023-05-23T12:09:56.998Z,50.61
2023-05-23T12:10:56.840Z,50.64
2023-05-23T12:11:56.829Z,50.56
2023-05-23T12:12:56.828Z,50.64
2023-05-23T12:13:56.814Z,50.56
2023-05-23T12:14:56.938Z,50.46
2023-05-23T12:15:56.844Z,50.49
2023-05-23T12:16:56.937Z,50.48
2023-05-23T12:17:56.911Z,50.48
2023-05-23T12:18:56.885Z,50.39
2023-05-23T12:19:56.949Z,50.50
2023-05-23T12:20:56.757Z,50.54
2023-05-23T12:21:56.769Z,50.53
2023-05-23T12:22:56.761Z,50.54
2023-05-23T12:23:56.745Z,50.57
2023-05-23T12:24:56.950Z,50.59
2023-05-23T12:25:56.981Z,50.62
2023-05-23T12:26:56.725Z,50.60
2023-05-23T12:27:56.740Z,50.62
2023-05-23T12:28:56.708Z,50.58
2023-05-23T12:29:56.725Z,50.61
2023-05-23T12:30:56.729Z,50.61
2023-05-23T12:31:56.993Z,50.63
2023-05-23T12:32:56.711Z,50.57
2023-05-23T12:33:56.679Z,50.61
2023-05-23T12:34:56.982Z,50.55
2023-05-23T12:35:56.653Z,50.51
2023-05-23T12:37:10.360Z,50.51
2023-05-23T12:37:56.676Z,50.47
2023-05-23T12:38:56.640Z,50.43
2023-05-23T12:39:56.697Z,50.45
2023-05-23T12:40:56.621Z,50.47
2023-05-23T12:41:56.949Z,50.50
2023-05-23T12:42:56.652Z,50.43
2023-05-23T12:43:56.606Z,50.44
2023-05-23T12:44:56.598Z,50.41
2023-05-23T12:45:56.940Z,50.44
2023-05-23T12:46:56.638Z,50.43
2023-05-23T12:47:56.577Z,50.40
2023-05-23T12:48:56.557Z,50.38
2023-05-23T12:49:57.009Z,50.34
2023-05-23T12:50:56.544Z,50.35
2023-05-23T12:51:56.543Z,50.34
2023-05-23T12:52:56.541Z,50.33
2023-05-23T12:53:56.521Z,50.26
2023-05-23T12:54:56.546Z,50.28
2023-05-23T12:55:56.501Z,50.25
2023-05-23T12:56:56.498Z,50.27
2023-05-23T12:57:56.533Z,50.23
2023-05-23T12:58:59.721Z,50.19
2023-05-23T12:59:56.970Z,50.18
2023-05-23T13:00:56.500Z,50.16